Hyalite Weather Station

This weather station provides temperature, wind speed, gust or max wind speed, and wind direction at 9982ft near the summit of Flanders Mountain. This data can be used with temperature and precipitation data from the Shower Falls SNOTEL site. If the data has not been updated recently you can view it directly on datagarrison.com

Elevation
9982ft
Jump to table bottom
Date Time Temperature
deg F
RH, % Wind Speed Wind Gust Wind Direction
12/09/19 09:00 4.8 90 6 14 NW - 295
12/09/19 08:00 4.9 90 8 15 W - 278
12/09/19 07:00 5.0 90 8 13 W - 282
12/09/19 06:00 5.0 90 10 17 W - 272
12/09/19 05:00 5.0 90 10 17 W - 278
12/09/19 04:00 5.4 91 10 19 W - 279
12/09/19 03:00 6.4 91 12 20 W - 270
12/09/19 02:00 6.9 91 13 20 W - 264
12/09/19 01:00 7.2 91 12 26 W - 268
12/09/19 00:00 7.8 91 12 23 W - 272
12/08/19 23:00 8.7 92 9 16 W - 275
12/08/19 22:00 9.0 92 8 16 W - 277
12/08/19 21:00 9.9 92 7 12 W - 272
12/08/19 20:00 10.2 92 8 17 W - 272
12/08/19 19:00 9.9 92 10 20 W - 281
12/08/19 18:00 10.0 92 12 24 W - 278
12/08/19 17:00 10.2 92 13 27 W - 279
12/08/19 16:00 11.7 93 12 21 W - 272
12/08/19 15:00 15.0 94 17 29 W - 271
12/08/19 14:00 16.9 95 15 36 W - 279
12/08/19 13:00 18.3 95 20 38 W - 264
12/08/19 12:00 19.3 95 20 36 W - 277
12/08/19 11:00 20.2 96 19 31 W - 274
12/08/19 10:00 20.2 96 20 38 W - 274
12/08/19 09:00 21.2 96 17 33 W - 268
12/08/19 08:00 21.7 96 17 34 W - 267
12/08/19 07:00 21.7 96 19 30 W - 260
12/08/19 06:00 22.1 96 20 31 W - 253
12/08/19 05:00 22.2 96 27 37 W - 251
12/08/19 04:00 22.5 96 25 45 W - 251
12/08/19 03:00 22.0 94 28 45 SW - 246
12/08/19 02:00 22.2 94 20 36 SW - 239
12/08/19 01:00 22.2 88 25 42 SW - 241
12/08/19 00:00 22.1 88 31 45 SW - 237
12/07/19 23:00 22.1 86 28 41 SW - 237
12/07/19 22:00 22.1 86 28 44 SW - 241
12/07/19 21:00 21.7 89 22 37 SW - 239
12/07/19 20:00 21.7 83 25 39 SW - 244
12/07/19 19:00 22.3 84 27 41 SW - 246
12/07/19 18:00 22.0 89 20 37 SW - 247
12/07/19 17:00 21.6 90 28 45 SW - 244
12/07/19 16:00 22.3 88 34 52 SW - 244
12/07/19 15:00 22.2 85 24 41 SW - 243
12/07/19 14:00 23.6 83 28 48 SW - 246
12/07/19 13:00 23.1 78 32 50 W - 250
12/07/19 12:00 24.8 75 34 50 SW - 246
12/07/19 11:00 23.8 75 32 48 SW - 244
12/07/19 10:00 23.1 73 23 38 SW - 239
12/07/19 09:00 23.5 74 24 41 SW - 237
12/07/19 08:00 22.9 78 32 47 SW - 234